sensor_id;sensor_type;location;lat;lon;timestamp;P1;durP1;ratioP1;P2;durP2;ratioP2
65656;SDS011;57397;50.096;14.404;2023-04-29T00:00:03;4.10;;;3.45;;
65656;SDS011;57397;50.096;14.404;2023-04-29T00:02:32;4.82;;;3.50;;
65656;SDS011;57397;50.096;14.404;2023-04-29T00:04:58;4.88;;;3.35;;
65656;SDS011;57397;50.096;14.404;2023-04-29T00:07:23;4.40;;;3.53;;
65656;SDS011;57397;50.096;14.404;2023-04-29T00:09:49;4.20;;;3.40;;
65656;SDS011;57397;50.096;14.404;2023-04-29T00:12:15;4.18;;;3.45;;
65656;SDS011;57397;50.096;14.404;2023-04-29T00:14:40;5.05;;;3.80;;
65656;SDS011;57397;50.096;14.404;2023-04-29T00:17:07;5.18;;;3.80;;
65656;SDS011;57397;50.096;14.404;2023-04-29T00:19:33;5.13;;;3.70;;
65656;SDS011;57397;50.096;14.404;2023-04-29T00:21:59;4.45;;;3.40;;
65656;SDS011;57397;50.096;14.404;2023-04-29T00:24:25;6.07;;;3.85;;
65656;SDS011;57397;50.096;14.404;2023-04-29T00:26:51;5.55;;;3.50;;
65656;SDS011;57397;50.096;14.404;2023-04-29T00:29:16;4.38;;;3.60;;
65656;SDS011;57397;50.096;14.404;2023-04-29T00:31:42;4.72;;;3.50;;
65656;SDS011;57397;50.096;14.404;2023-04-29T00:34:08;5.63;;;3.50;;
65656;SDS011;57397;50.096;14.404;2023-04-29T00:36:33;5.45;;;3.78;;
65656;SDS011;57397;50.096;14.404;2023-04-29T00:38:59;4.45;;;3.50;;
65656;SDS011;57397;50.096;14.404;2023-04-29T00:41:24;6.55;;;3.58;;
65656;SDS011;57397;50.096;14.404;2023-04-29T00:43:50;7.15;;;3.78;;
65656;SDS011;57397;50.096;14.404;2023-04-29T00:46:16;5.40;;;3.53;;
65656;SDS011;57397;50.096;14.404;2023-04-29T00:48:42;5.07;;;3.70;;
65656;SDS011;57397;50.096;14.404;2023-04-29T00:51:07;4.72;;;3.15;;
65656;SDS011;57397;50.096;14.404;2023-04-29T00:53:33;5.22;;;3.55;;
65656;SDS011;57397;50.096;14.404;2023-04-29T00:55:59;4.53;;;3.35;;
65656;SDS011;57397;50.096;14.404;2023-04-29T00:58:26;4.63;;;3.53;;
65656;SDS011;57397;50.096;14.404;2023-04-29T01:00:58;4.20;;;3.33;;
65656;SDS011;57397;50.096;14.404;2023-04-29T01:03:24;4.45;;;3.13;;
65656;SDS011;57397;50.096;14.404;2023-04-29T01:05:51;4.88;;;3.28;;
65656;SDS011;57397;50.096;14.404;2023-04-29T01:08:36;5.28;;;3.58;;
65656;SDS011;57397;50.096;14.404;2023-04-29T01:11:08;4.38;;;3.42;;
65656;SDS011;57397;50.096;14.404;2023-04-29T01:13:50;4.45;;;3.70;;
65656;SDS011;57397;50.096;14.404;2023-04-29T01:16:36;3.88;;;3.30;;
65656;SDS011;57397;50.096;14.404;2023-04-29T01:19:13;4.80;;;3.72;;
65656;SDS011;57397;50.096;14.404;2023-04-29T01:21:47;5.47;;;3.45;;
65656;SDS011;57397;50.096;14.404;2023-04-29T01:24:14;4.75;;;3.55;;
65656;SDS011;57397;50.096;14.404;2023-04-29T01:26:41;5.38;;;3.70;;
65656;SDS011;57397;50.096;14.404;2023-04-29T01:32:05;4.40;;;3.72;;
65656;SDS011;57397;50.096;14.404;2023-04-29T01:42:38;5.82;;;3.50;;
65656;SDS011;57397;50.096;14.404;2023-04-29T01:45:06;4.78;;;3.22;;
65656;SDS011;57397;50.096;14.404;2023-04-29T01:47:32;4.40;;;3.28;;
65656;SDS011;57397;50.096;14.404;2023-04-29T01:50:00;5.18;;;3.40;;
65656;SDS011;57397;50.096;14.404;2023-04-29T01:52:26;4.97;;;3.40;;
65656;SDS011;57397;50.096;14.404;2023-04-29T01:54:52;4.88;;;3.40;;
65656;SDS011;57397;50.096;14.404;2023-04-29T01:57:18;3.95;;;3.38;;
65656;SDS011;57397;50.096;14.404;2023-04-29T01:59:43;4.82;;;3.20;;
65656;SDS011;57397;50.096;14.404;2023-04-29T02:02:09;4.07;;;3.38;;
65656;SDS011;57397;50.096;14.404;2023-04-29T02:04:34;4.15;;;3.33;;
65656;SDS011;57397;50.096;14.404;2023-04-29T02:07:00;4.47;;;3.42;;
65656;SDS011;57397;50.096;14.404;2023-04-29T02:09:25;4.20;;;3.20;;
65656;SDS011;57397;50.096;14.404;2023-04-29T02:11:51;4.40;;;3.50;;
65656;SDS011;57397;50.096;14.404;2023-04-29T02:14:17;4.82;;;3.40;;
65656;SDS011;57397;50.096;14.404;2023-04-29T02:16:45;4.07;;;3.20;;
65656;SDS011;57397;50.096;14.404;2023-04-29T02:19:11;4.45;;;3.45;;
65656;SDS011;57397;50.096;14.404;2023-04-29T02:21:36;4.72;;;3.60;;
65656;SDS011;57397;50.096;14.404;2023-04-29T02:24:04;5.13;;;3.28;;
65656;SDS011;57397;50.096;14.404;2023-04-29T02:26:30;4.22;;;2.97;;
65656;SDS011;57397;50.096;14.404;2023-04-29T02:28:56;5.00;;;3.35;;
65656;SDS011;57397;50.096;14.404;2023-04-29T02:31:22;3.55;;;3.10;;
65656;SDS011;57397;50.096;14.404;2023-04-29T02:33:47;3.90;;;3.05;;
65656;SDS011;57397;50.096;14.404;2023-04-29T02:36:13;4.90;;;3.25;;
65656;SDS011;57397;50.096;14.404;2023-04-29T02:38:38;4.70;;;3.28;;
65656;SDS011;57397;50.096;14.404;2023-04-29T02:41:04;4.88;;;3.50;;
65656;SDS011;57397;50.096;14.404;2023-04-29T02:43:29;4.95;;;3.50;;
65656;SDS011;57397;50.096;14.404;2023-04-29T02:45:55;4.55;;;3.60;;
65656;SDS011;57397;50.096;14.404;2023-04-29T02:48:21;4.03;;;3.17;;
65656;SDS011;57397;50.096;14.404;2023-04-29T02:50:46;4.13;;;3.50;;
65656;SDS011;57397;50.096;14.404;2023-04-29T02:53:12;4.57;;;3.42;;
65656;SDS011;57397;50.096;14.404;2023-04-29T02:55:38;4.28;;;3.20;;
65656;SDS011;57397;50.096;14.404;2023-04-29T02:58:03;5.30;;;3.28;;
65656;SDS011;57397;50.096;14.404;2023-04-29T03:00:29;4.32;;;3.10;;
65656;SDS011;57397;50.096;14.404;2023-04-29T03:02:54;5.43;;;3.30;;
65656;SDS011;57397;50.096;14.404;2023-04-29T03:05:20;4.28;;;3.30;;
65656;SDS011;57397;50.096;14.404;2023-04-29T03:07:45;4.20;;;3.15;;
65656;SDS011;57397;50.096;14.404;2023-04-29T03:10:11;5.95;;;3.00;;
65656;SDS011;57397;50.096;14.404;2023-04-29T03:12:37;4.70;;;3.55;;
65656;SDS011;57397;50.096;14.404;2023-04-29T03:15:04;4.65;;;3.30;;
65656;SDS011;57397;50.096;14.404;2023-04-29T03:17:31;4.75;;;3.30;;
65656;SDS011;57397;50.096;14.404;2023-04-29T03:19:57;4.13;;;3.38;;
65656;SDS011;57397;50.096;14.404;2023-04-29T03:22:23;3.72;;;3.00;;
65656;SDS011;57397;50.096;14.404;2023-04-29T03:24:48;4.15;;;3.40;;
65656;SDS011;57397;50.096;14.404;2023-04-29T03:27:14;4.13;;;3.22;;
65656;SDS011;57397;50.096;14.404;2023-04-29T03:29:40;3.85;;;3.00;;
65656;SDS011;57397;50.096;14.404;2023-04-29T03:32:05;4.10;;;3.15;;
65656;SDS011;57397;50.096;14.404;2023-04-29T03:34:31;4.53;;;3.30;;
65656;SDS011;57397;50.096;14.404;2023-04-29T03:36:56;4.60;;;3.50;;
65656;SDS011;57397;50.096;14.404;2023-04-29T03:39:22;4.15;;;3.28;;
65656;SDS011;57397;50.096;14.404;2023-04-29T03:41:47;3.95;;;2.92;;
65656;SDS011;57397;50.096;14.404;2023-04-29T03:44:13;3.95;;;3.00;;
65656;SDS011;57397;50.096;14.404;2023-04-29T03:46:39;4.40;;;3.00;;
65656;SDS011;57397;50.096;14.404;2023-04-29T03:49:04;4.18;;;3.13;;
65656;SDS011;57397;50.096;14.404;2023-04-29T03:51:30;4.10;;;3.30;;
65656;SDS011;57397;50.096;14.404;2023-04-29T03:53:56;4.97;;;2.92;;
65656;SDS011;57397;50.096;14.404;2023-04-29T03:56:23;4.35;;;3.20;;
65656;SDS011;57397;50.096;14.404;2023-04-29T03:58:51;4.38;;;3.33;;
65656;SDS011;57397;50.096;14.404;2023-04-29T04:01:17;4.10;;;3.03;;
65656;SDS011;57397;50.096;14.404;2023-04-29T04:03:43;4.25;;;2.97;;
65656;SDS011;57397;50.096;14.404;2023-04-29T04:06:09;5.30;;;2.72;;
65656;SDS011;57397;50.096;14.404;2023-04-29T04:08:34;3.30;;;2.97;;
65656;SDS011;57397;50.096;14.404;2023-04-29T04:11:00;3.55;;;2.88;;
65656;SDS011;57397;50.096;14.404;2023-04-29T04:13:29;3.63;;;2.80;;
65656;SDS011;57397;50.096;14.404;2023-04-29T04:15:54;3.53;;;2.75;;
65656;SDS011;57397;50.096;14.404;2023-04-29T04:18:20;3.65;;;3.22;;
65656;SDS011;57397;50.096;14.404;2023-04-29T04:20:45;3.30;;;2.53;;
65656;SDS011;57397;50.096;14.404;2023-04-29T04:23:11;3.42;;;2.97;;
65656;SDS011;57397;50.096;14.404;2023-04-29T04:25:37;4.30;;;2.90;;
65656;SDS011;57397;50.096;14.404;2023-04-29T04:28:03;3.58;;;2.67;;
65656;SDS011;57397;50.096;14.404;2023-04-29T04:30:29;3.38;;;2.63;;
65656;SDS011;57397;50.096;14.404;2023-04-29T04:32:54;4.75;;;3.25;;
65656;SDS011;57397;50.096;14.404;2023-04-29T04:35:20;4.30;;;2.67;;
65656;SDS011;57397;50.096;14.404;2023-04-29T04:37:45;4.97;;;2.85;;
65656;SDS011;57397;50.096;14.404;2023-04-29T04:40:11;3.35;;;2.60;;
65656;SDS011;57397;50.096;14.404;2023-04-29T04:42:38;3.17;;;2.58;;
65656;SDS011;57397;50.096;14.404;2023-04-29T04:45:04;3.20;;;2.80;;
65656;SDS011;57397;50.096;14.404;2023-04-29T04:47:30;3.70;;;2.55;;
65656;SDS011;57397;50.096;14.404;2023-04-29T04:49:55;3.33;;;2.70;;
65656;SDS011;57397;50.096;14.404;2023-04-29T04:52:21;3.53;;;2.60;;
65656;SDS011;57397;50.096;14.404;2023-04-29T04:54:47;3.50;;;2.58;;
65656;SDS011;57397;50.096;14.404;2023-04-29T04:57:12;2.58;;;2.25;;
65656;SDS011;57397;50.096;14.404;2023-04-29T04:59:38;3.03;;;2.35;;
65656;SDS011;57397;50.096;14.404;2023-04-29T05:02:03;2.40;;;2.10;;
65656;SDS011;57397;50.096;14.404;2023-04-29T05:04:29;3.45;;;2.40;;
65656;SDS011;57397;50.096;14.404;2023-04-29T05:06:54;2.83;;;2.42;;
65656;SDS011;57397;50.096;14.404;2023-04-29T05:09:20;2.80;;;2.30;;
65656;SDS011;57397;50.096;14.404;2023-04-29T05:11:45;3.10;;;2.13;;
65656;SDS011;57397;50.096;14.404;2023-04-29T05:14:11;3.30;;;2.47;;
65656;SDS011;57397;50.096;14.404;2023-04-29T05:16:36;3.13;;;2.22;;
65656;SDS011;57397;50.096;14.404;2023-04-29T05:19:02;2.63;;;2.17;;
65656;SDS011;57397;50.096;14.404;2023-04-29T05:21:28;2.55;;;2.00;;
65656;SDS011;57397;50.096;14.404;2023-04-29T05:23:53;3.00;;;2.22;;
65656;SDS011;57397;50.096;14.404;2023-04-29T05:26:19;2.55;;;2.10;;
65656;SDS011;57397;50.096;14.404;2023-04-29T05:28:45;2.45;;;1.90;;
65656;SDS011;57397;50.096;14.404;2023-04-29T05:31:10;2.20;;;1.92;;
65656;SDS011;57397;50.096;14.404;2023-04-29T05:33:36;2.50;;;1.92;;
65656;SDS011;57397;50.096;14.404;2023-04-29T05:36:01;2.65;;;2.30;;
65656;SDS011;57397;50.096;14.404;2023-04-29T05:38:27;3.20;;;2.10;;
65656;SDS011;57397;50.096;14.404;2023-04-29T05:40:56;3.05;;;1.90;;
65656;SDS011;57397;50.096;14.404;2023-04-29T05:43:21;2.65;;;2.00;;
65656;SDS011;57397;50.096;14.404;2023-04-29T05:45:47;2.40;;;1.92;;
65656;SDS011;57397;50.096;14.404;2023-04-29T05:48:13;2.40;;;2.00;;
65656;SDS011;57397;50.096;14.404;2023-04-29T05:50:38;2.15;;;1.65;;
65656;SDS011;57397;50.096;14.404;2023-04-29T05:53:04;1.80;;;1.55;;
65656;SDS011;57397;50.096;14.404;2023-04-29T05:55:29;2.40;;;1.70;;
65656;SDS011;57397;50.096;14.404;2023-04-29T05:57:58;2.28;;;1.85;;
65656;SDS011;57397;50.096;14.404;2023-04-29T06:00:23;2.10;;;1.70;;
65656;SDS011;57397;50.096;14.404;2023-04-29T06:02:49;2.47;;;2.00;;
65656;SDS011;57397;50.096;14.404;2023-04-29T06:05:14;2.30;;;1.88;;
65656;SDS011;57397;50.096;14.404;2023-04-29T06:07:41;2.40;;;1.60;;
65656;SDS011;57397;50.096;14.404;2023-04-29T06:10:07;2.42;;;1.80;;
65656;SDS011;57397;50.096;14.404;2023-04-29T06:12:33;2.20;;;1.80;;
65656;SDS011;57397;50.096;14.404;2023-04-29T06:14:58;2.35;;;1.73;;
65656;SDS011;57397;50.096;14.404;2023-04-29T06:17:25;2.10;;;1.70;;
65656;SDS011;57397;50.096;14.404;2023-04-29T06:19:56;3.05;;;1.73;;
65656;SDS011;57397;50.096;14.404;2023-04-29T06:22:21;2.20;;;1.75;;
65656;SDS011;57397;50.096;14.404;2023-04-29T06:24:47;2.38;;;1.90;;
65656;SDS011;57397;50.096;14.404;2023-04-29T06:27:16;1.98;;;1.70;;
65656;SDS011;57397;50.096;14.404;2023-04-29T06:29:42;2.08;;;1.70;;
65656;SDS011;57397;50.096;14.404;2023-04-29T06:32:07;2.30;;;1.80;;
65656;SDS011;57397;50.096;14.404;2023-04-29T06:34:33;1.70;;;1.48;;
65656;SDS011;57397;50.096;14.404;2023-04-29T06:36:58;2.05;;;1.70;;
65656;SDS011;57397;50.096;14.404;2023-04-29T06:39:24;2.13;;;1.60;;
65656;SDS011;57397;50.096;14.404;2023-04-29T06:41:50;1.90;;;1.67;;
65656;SDS011;57397;50.096;14.404;2023-04-29T06:44:16;2.67;;;1.65;;
65656;SDS011;57397;50.096;14.404;2023-04-29T06:46:42;2.03;;;1.70;;
65656;SDS011;57397;50.096;14.404;2023-04-29T06:49:08;2.22;;;1.60;;
65656;SDS011;57397;50.096;14.404;2023-04-29T06:51:34;2.13;;;1.60;;
65656;SDS011;57397;50.096;14.404;2023-04-29T06:54:01;1.83;;;1.70;;
65656;SDS011;57397;50.096;14.404;2023-04-29T06:56:26;2.53;;;1.80;;
65656;SDS011;57397;50.096;14.404;2023-04-29T06:58:52;1.88;;;1.50;;
65656;SDS011;57397;50.096;14.404;2023-04-29T07:01:17;2.30;;;1.75;;
65656;SDS011;57397;50.096;14.404;2023-04-29T07:03:43;2.40;;;1.70;;
65656;SDS011;57397;50.096;14.404;2023-04-29T07:06:08;2.05;;;1.63;;
65656;SDS011;57397;50.096;14.404;2023-04-29T07:08:34;2.08;;;1.60;;
65656;SDS011;57397;50.096;14.404;2023-04-29T07:10:59;1.58;;;1.48;;
65656;SDS011;57397;50.096;14.404;2023-04-29T07:13:25;1.70;;;1.40;;
65656;SDS011;57397;50.096;14.404;2023-04-29T07:15:51;1.80;;;1.50;;
65656;SDS011;57397;50.096;14.404;2023-04-29T07:18:16;1.88;;;1.60;;
65656;SDS011;57397;50.096;14.404;2023-04-29T07:20:42;2.33;;;1.70;;
65656;SDS011;57397;50.096;14.404;2023-04-29T07:23:08;1.98;;;1.50;;
65656;SDS011;57397;50.096;14.404;2023-04-29T07:25:35;1.50;;;1.40;;
65656;SDS011;57397;50.096;14.404;2023-04-29T07:28:01;2.10;;;1.70;;
65656;SDS011;57397;50.096;14.404;2023-04-29T07:30:26;1.73;;;1.42;;
65656;SDS011;57397;50.096;14.404;2023-04-29T07:32:52;1.85;;;1.45;;
65656;SDS011;57397;50.096;14.404;2023-04-29T07:35:18;2.17;;;1.55;;
65656;SDS011;57397;50.096;14.404;2023-04-29T07:37:43;2.13;;;1.52;;
65656;SDS011;57397;50.096;14.404;2023-04-29T07:40:10;1.55;;;1.40;;
65656;SDS011;57397;50.096;14.404;2023-04-29T07:42:35;1.95;;;1.50;;
65656;SDS011;57397;50.096;14.404;2023-04-29T07:45:01;2.70;;;1.30;;
65656;SDS011;57397;50.096;14.404;2023-04-29T07:47:27;2.15;;;1.70;;
65656;SDS011;57397;50.096;14.404;2023-04-29T07:49:52;1.60;;;1.25;;
65656;SDS011;57397;50.096;14.404;2023-04-29T07:52:18;1.60;;;1.30;;
65656;SDS011;57397;50.096;14.404;2023-04-29T07:54:43;1.40;;;1.20;;
65656;SDS011;57397;50.096;14.404;2023-04-29T07:57:09;1.60;;;1.35;;
65656;SDS011;57397;50.096;14.404;2023-04-29T07:59:34;1.58;;;1.27;;
65656;SDS011;57397;50.096;14.404;2023-04-29T08:02:00;1.40;;;1.20;;
65656;SDS011;57397;50.096;14.404;2023-04-29T08:04:26;1.73;;;1.20;;
65656;SDS011;57397;50.096;14.404;2023-04-29T08:06:51;1.60;;;1.33;;
65656;SDS011;57397;50.096;14.404;2023-04-29T08:09:17;1.50;;;1.23;;
65656;SDS011;57397;50.096;14.404;2023-04-29T08:11:42;1.63;;;1.20;;
65656;SDS011;57397;50.096;14.404;2023-04-29T08:14:08;1.95;;;1.40;;
65656;SDS011;57397;50.096;14.404;2023-04-29T08:16:34;1.38;;;1.20;;
65656;SDS011;57397;50.096;14.404;2023-04-29T08:19:00;1.80;;;1.50;;
65656;SDS011;57397;50.096;14.404;2023-04-29T08:21:25;1.75;;;1.15;;
65656;SDS011;57397;50.096;14.404;2023-04-29T08:23:51;1.52;;;1.20;;
65656;SDS011;57397;50.096;14.404;2023-04-29T08:26:17;1.45;;;1.20;;
65656;SDS011;57397;50.096;14.404;2023-04-29T08:28:43;1.38;;;1.27;;
65656;SDS011;57397;50.096;14.404;2023-04-29T08:31:15;1.58;;;1.25;;
65656;SDS011;57397;50.096;14.404;2023-04-29T08:33:41;1.33;;;1.20;;
65656;SDS011;57397;50.096;14.404;2023-04-29T08:36:07;1.55;;;1.10;;
65656;SDS011;57397;50.096;14.404;2023-04-29T08:38:32;2.03;;;1.20;;
65656;SDS011;57397;50.096;14.404;2023-04-29T08:40:58;1.70;;;1.30;;
65656;SDS011;57397;50.096;14.404;2023-04-29T08:43:23;1.45;;;1.20;;
65656;SDS011;57397;50.096;14.404;2023-04-29T08:45:50;1.10;;;1.00;;
65656;SDS011;57397;50.096;14.404;2023-04-29T08:48:16;1.77;;;1.40;;
65656;SDS011;57397;50.096;14.404;2023-04-29T08:50:42;2.30;;;1.33;;
65656;SDS011;57397;50.096;14.404;2023-04-29T08:53:08;1.65;;;1.40;;
65656;SDS011;57397;50.096;14.404;2023-04-29T08:55:36;1.40;;;1.10;;
65656;SDS011;57397;50.096;14.404;2023-04-29T08:58:05;1.60;;;1.20;;
65656;SDS011;57397;50.096;14.404;2023-04-29T09:00:31;1.65;;;1.10;;
65656;SDS011;57397;50.096;14.404;2023-04-29T09:02:59;1.40;;;1.10;;
65656;SDS011;57397;50.096;14.404;2023-04-29T09:05:25;1.50;;;1.15;;
65656;SDS011;57397;50.096;14.404;2023-04-29T09:07:51;1.30;;;1.20;;
65656;SDS011;57397;50.096;14.404;2023-04-29T09:10:17;2.38;;;1.50;;
65656;SDS011;57397;50.096;14.404;2023-04-29T09:12:43;1.70;;;1.30;;
65656;SDS011;57397;50.096;14.404;2023-04-29T09:15:08;1.23;;;0.98;;
65656;SDS011;57397;50.096;14.404;2023-04-29T09:17:38;2.42;;;1.10;;
65656;SDS011;57397;50.096;14.404;2023-04-29T09:22:51;1.45;;;1.10;;
65656;SDS011;57397;50.096;14.404;2023-04-29T09:25:35;1.30;;;1.10;;
65656;SDS011;57397;50.096;14.404;2023-04-29T09:28:13;1.30;;;1.00;;
65656;SDS011;57397;50.096;14.404;2023-04-29T09:30:45;1.98;;;1.13;;
65656;SDS011;57397;50.096;14.404;2023-04-29T09:33:11;1.20;;;1.10;;
65656;SDS011;57397;50.096;14.404;2023-04-29T09:35:39;2.33;;;1.15;;
65656;SDS011;57397;50.096;14.404;2023-04-29T09:40:33;1.35;;;1.10;;
65656;SDS011;57397;50.096;14.404;2023-04-29T09:42:59;2.17;;;1.20;;
65656;SDS011;57397;50.096;14.404;2023-04-29T09:45:34;1.60;;;1.48;;
65656;SDS011;57397;50.096;14.404;2023-04-29T09:48:04;2.00;;;1.10;;
65656;SDS011;57397;50.096;14.404;2023-04-29T09:50:31;1.52;;;1.05;;
65656;SDS011;57397;50.096;14.404;2023-04-29T09:52:58;1.08;;;0.98;;
65656;SDS011;57397;50.096;14.404;2023-04-29T09:55:24;1.85;;;1.20;;
65656;SDS011;57397;50.096;14.404;2023-04-29T09:57:54;1.40;;;1.17;;
65656;SDS011;57397;50.096;14.404;2023-04-29T10:00:20;1.30;;;1.00;;
65656;SDS011;57397;50.096;14.404;2023-04-29T10:02:46;1.42;;;0.93;;
65656;SDS011;57397;50.096;14.404;2023-04-29T10:05:14;1.20;;;1.10;;
65656;SDS011;57397;50.096;14.404;2023-04-29T10:07:40;1.73;;;1.05;;
65656;SDS011;57397;50.096;14.404;2023-04-29T10:10:06;1.50;;;1.02;;
65656;SDS011;57397;50.096;14.404;2023-04-29T10:12:38;1.17;;;0.90;;
65656;SDS011;57397;50.096;14.404;2023-04-29T10:18:02;1.67;;;1.10;;
65656;SDS011;57397;50.096;14.404;2023-04-29T10:20:47;1.25;;;1.00;;
65656;SDS011;57397;50.096;14.404;2023-04-29T10:23:13;1.20;;;1.00;;
65656;SDS011;57397;50.096;14.404;2023-04-29T10:25:40;1.20;;;1.00;;
65656;SDS011;57397;50.096;14.404;2023-04-29T10:28:11;1.27;;;1.05;;
65656;SDS011;57397;50.096;14.404;2023-04-29T10:30:39;1.00;;;0.82;;
65656;SDS011;57397;50.096;14.404;2023-04-29T10:33:07;1.13;;;0.90;;
65656;SDS011;57397;50.096;14.404;2023-04-29T10:35:35;2.95;;;1.00;;
65656;SDS011;57397;50.096;14.404;2023-04-29T10:38:04;1.10;;;0.93;;
65656;SDS011;57397;50.096;14.404;2023-04-29T10:40:43;1.13;;;1.00;;
65656;SDS011;57397;50.096;14.404;2023-04-29T10:43:12;1.27;;;1.00;;
65656;SDS011;57397;50.096;14.404;2023-04-29T10:45:39;1.30;;;0.90;;
65656;SDS011;57397;50.096;14.404;2023-04-29T10:48:07;1.60;;;1.02;;
65656;SDS011;57397;50.096;14.404;2023-04-29T10:50:38;1.40;;;1.00;;
65656;SDS011;57397;50.096;14.404;2023-04-29T10:53:10;1.23;;;1.00;;
65656;SDS011;57397;50.096;14.404;2023-04-29T10:55:36;1.00;;;0.90;;
65656;SDS011;57397;50.096;14.404;2023-04-29T10:58:03;1.25;;;1.00;;
65656;SDS011;57397;50.096;14.404;2023-04-29T11:00:30;1.08;;;0.90;;
65656;SDS011;57397;50.096;14.404;2023-04-29T11:03:04;1.15;;;0.90;;
65656;SDS011;57397;50.096;14.404;2023-04-29T11:05:30;1.20;;;0.80;;
65656;SDS011;57397;50.096;14.404;2023-04-29T11:08:10;1.10;;;0.90;;
65656;SDS011;57397;50.096;14.404;2023-04-29T11:10:41;1.35;;;1.10;;
65656;SDS011;57397;50.096;14.404;2023-04-29T11:13:23;1.10;;;1.00;;
65656;SDS011;57397;50.096;14.404;2023-04-29T11:15:50;1.10;;;0.80;;
65656;SDS011;57397;50.096;14.404;2023-04-29T11:18:16;1.38;;;0.80;;
65656;SDS011;57397;50.096;14.404;2023-04-29T11:23:30;1.20;;;0.90;;
65656;SDS011;57397;50.096;14.404;2023-04-29T11:25:57;0.95;;;0.80;;
65656;SDS011;57397;50.096;14.404;2023-04-29T11:28:23;0.85;;;0.70;;
65656;SDS011;57397;50.096;14.404;2023-04-29T11:30:49;1.08;;;0.80;;
65656;SDS011;57397;50.096;14.404;2023-04-29T11:33:15;1.00;;;0.80;;
65656;SDS011;57397;50.096;14.404;2023-04-29T11:35:41;1.50;;;0.90;;
65656;SDS011;57397;50.096;14.404;2023-04-29T11:38:07;1.80;;;0.80;;
65656;SDS011;57397;50.096;14.404;2023-04-29T11:40:33;1.10;;;0.80;;
65656;SDS011;57397;50.096;14.404;2023-04-29T11:42:59;1.15;;;0.82;;
65656;SDS011;57397;50.096;14.404;2023-04-29T11:45:24;0.98;;;0.80;;
65656;SDS011;57397;50.096;14.404;2023-04-29T11:47:50;1.25;;;1.00;;
65656;SDS011;57397;50.096;14.404;2023-04-29T11:50:16;1.30;;;0.90;;
65656;SDS011;57397;50.096;14.404;2023-04-29T11:52:44;0.90;;;0.70;;
65656;SDS011;57397;50.096;14.404;2023-04-29T11:55:11;0.90;;;0.80;;
65656;SDS011;57397;50.096;14.404;2023-04-29T11:57:36;1.27;;;0.82;;
65656;SDS011;57397;50.096;14.404;2023-04-29T12:00:04;1.85;;;0.80;;
65656;SDS011;57397;50.096;14.404;2023-04-29T12:02:30;1.00;;;0.90;;
65656;SDS011;57397;50.096;14.404;2023-04-29T12:04:57;1.05;;;0.80;;
65656;SDS011;57397;50.096;14.404;2023-04-29T12:07:29;1.10;;;0.90;;
65656;SDS011;57397;50.096;14.404;2023-04-29T12:09:55;1.02;;;0.93;;
65656;SDS011;57397;50.096;14.404;2023-04-29T12:12:21;1.13;;;0.77;;
65656;SDS011;57397;50.096;14.404;2023-04-29T12:14:47;0.90;;;0.70;;
65656;SDS011;57397;50.096;14.404;2023-04-29T12:17:13;1.35;;;0.88;;
65656;SDS011;57397;50.096;14.404;2023-04-29T12:19:39;1.40;;;1.02;;
65656;SDS011;57397;50.096;14.404;2023-04-29T12:22:05;1.17;;;0.88;;
65656;SDS011;57397;50.096;14.404;2023-04-29T12:24:34;1.85;;;1.00;;
65656;SDS011;57397;50.096;14.404;2023-04-29T12:27:01;0.98;;;0.80;;
65656;SDS011;57397;50.096;14.404;2023-04-29T12:29:27;0.95;;;0.80;;
65656;SDS011;57397;50.096;14.404;2023-04-29T12:31:54;1.00;;;0.80;;
65656;SDS011;57397;50.096;14.404;2023-04-29T12:34:25;1.05;;;0.90;;
65656;SDS011;57397;50.096;14.404;2023-04-29T12:36:53;1.67;;;1.00;;
65656;SDS011;57397;50.096;14.404;2023-04-29T12:39:20;1.10;;;0.90;;
65656;SDS011;57397;50.096;14.404;2023-04-29T12:41:45;1.65;;;0.98;;
65656;SDS011;57397;50.096;14.404;2023-04-29T12:44:10;1.60;;;0.90;;
65656;SDS011;57397;50.096;14.404;2023-04-29T12:46:37;1.13;;;0.95;;
65656;SDS011;57397;50.096;14.404;2023-04-29T12:49:03;1.10;;;0.90;;
65656;SDS011;57397;50.096;14.404;2023-04-29T12:51:30;1.30;;;0.85;;
65656;SDS011;57397;50.096;14.404;2023-04-29T12:53:57;1.20;;;0.85;;
65656;SDS011;57397;50.096;14.404;2023-04-29T12:56:24;0.80;;;0.75;;
65656;SDS011;57397;50.096;14.404;2023-04-29T12:58:50;0.90;;;0.80;;
65656;SDS011;57397;50.096;14.404;2023-04-29T13:01:15;1.40;;;0.90;;
65656;SDS011;57397;50.096;14.404;2023-04-29T13:03:42;0.85;;;0.73;;
65656;SDS011;57397;50.096;14.404;2023-04-29T13:06:07;1.00;;;0.82;;
65656;SDS011;57397;50.096;14.404;2023-04-29T13:08:33;1.02;;;0.80;;
65656;SDS011;57397;50.096;14.404;2023-04-29T13:10:58;1.33;;;0.90;;
65656;SDS011;57397;50.096;14.404;2023-04-29T13:13:24;1.02;;;0.90;;
65656;SDS011;57397;50.096;14.404;2023-04-29T13:15:49;1.15;;;0.90;;
65656;SDS011;57397;50.096;14.404;2023-04-29T13:18:15;1.13;;;0.90;;
65656;SDS011;57397;50.096;14.404;2023-04-29T13:20:40;1.27;;;0.80;;
65656;SDS011;57397;50.096;14.404;2023-04-29T13:23:06;1.30;;;0.93;;
65656;SDS011;57397;50.096;14.404;2023-04-29T13:25:32;1.23;;;1.00;;
65656;SDS011;57397;50.096;14.404;2023-04-29T13:27:57;0.88;;;0.80;;
65656;SDS011;57397;50.096;14.404;2023-04-29T13:30:23;1.00;;;0.90;;
65656;SDS011;57397;50.096;14.404;2023-04-29T13:32:48;1.15;;;1.00;;
65656;SDS011;57397;50.096;14.404;2023-04-29T13:35:14;1.20;;;0.90;;
65656;SDS011;57397;50.096;14.404;2023-04-29T13:37:39;1.52;;;0.80;;
65656;SDS011;57397;50.096;14.404;2023-04-29T13:40:05;0.95;;;0.70;;
65656;SDS011;57397;50.096;14.404;2023-04-29T13:42:31;1.00;;;0.80;;
65656;SDS011;57397;50.096;14.404;2023-04-29T13:44:56;1.13;;;0.82;;
65656;SDS011;57397;50.096;14.404;2023-04-29T13:47:22;0.93;;;0.82;;
65656;SDS011;57397;50.096;14.404;2023-04-29T13:49:47;1.10;;;0.90;;
65656;SDS011;57397;50.096;14.404;2023-04-29T13:52:13;1.30;;;0.90;;
65656;SDS011;57397;50.096;14.404;2023-04-29T13:54:39;0.93;;;0.70;;
65656;SDS011;57397;50.096;14.404;2023-04-29T13:57:05;1.15;;;0.93;;
65656;SDS011;57397;50.096;14.404;2023-04-29T13:59:30;1.20;;;0.95;;
65656;SDS011;57397;50.096;14.404;2023-04-29T14:01:59;0.82;;;0.73;;
65656;SDS011;57397;50.096;14.404;2023-04-29T14:04:26;1.63;;;0.77;;
65656;SDS011;57397;50.096;14.404;2023-04-29T14:06:52;1.00;;;0.80;;
65656;SDS011;57397;50.096;14.404;2023-04-29T14:09:19;1.00;;;0.75;;
65656;SDS011;57397;50.096;14.404;2023-04-29T14:11:45;1.00;;;0.70;;
65656;SDS011;57397;50.096;14.404;2023-04-29T14:14:12;1.00;;;0.80;;
65656;SDS011;57397;50.096;14.404;2023-04-29T14:16:37;1.17;;;0.88;;
65656;SDS011;57397;50.096;14.404;2023-04-29T14:19:03;0.95;;;0.80;;
65656;SDS011;57397;50.096;14.404;2023-04-29T14:21:28;0.90;;;0.70;;
65656;SDS011;57397;50.096;14.404;2023-04-29T14:23:57;1.00;;;0.70;;
65656;SDS011;57397;50.096;14.404;2023-04-29T14:26:23;1.55;;;0.80;;
65656;SDS011;57397;50.096;14.404;2023-04-29T14:28:49;0.98;;;0.80;;
65656;SDS011;57397;50.096;14.404;2023-04-29T14:31:22;1.00;;;0.80;;
65656;SDS011;57397;50.096;14.404;2023-04-29T14:34:03;2.47;;;0.80;;
65656;SDS011;57397;50.096;14.404;2023-04-29T14:36:29;0.85;;;0.70;;
65656;SDS011;57397;50.096;14.404;2023-04-29T14:38:56;1.42;;;0.80;;
65656;SDS011;57397;50.096;14.404;2023-04-29T14:41:22;2.13;;;0.90;;
65656;SDS011;57397;50.096;14.404;2023-04-29T14:43:48;1.10;;;0.70;;
65656;SDS011;57397;50.096;14.404;2023-04-29T14:46:14;0.98;;;0.80;;
65656;SDS011;57397;50.096;14.404;2023-04-29T14:48:39;1.10;;;0.80;;
65656;SDS011;57397;50.096;14.404;2023-04-29T14:51:05;0.98;;;0.75;;